Time;durP1;ratioP1;P1;durP2;ratioP2;P2;SDS_P1;SDS_P2;PMS_P1;PMS_P2;Temp;Humidity;BMP_temperature;BMP_pressure;BME280_temperature;BME280_humidity;BME280_pressure;Samples;Min_cycle;Max_cycle;Signal;HPM_P1;HPM_P2
2022/01/12 09:27:27;;;;;;;3.28;1.38;;;22.10;95.50;;;;;;5089242;27;20144;-79
2022/01/12 09:29:52;;;;;;;2.33;1.10;;;21.90;95.70;;;;;;5069660;28;20676;-81
2022/01/12 09:32:20;;;;;;;2.53;1.35;;;22.00;95.50;;;;;;5036125;28;20034;-79
2022/01/12 09:34:46;;;;;;;1.80;0.93;;;22.00;95.20;;;;;;5043148;28;20119;-80
2022/01/12 09:37:12;;;;;;;5.53;1.73;;;22.10;95.20;;;;;;5035427;28;20500;-77
2022/01/12 09:39:40;;;;;;;1.58;1.02;;;22.20;94.60;;;;;;5044886;28;20025;-79
2022/01/12 09:42:06;;;;;;;3.45;1.40;;;22.30;94.60;;;;;;5046396;28;20041;-80
2022/01/12 09:44:37;;;;;;;1.52;0.95;;;22.40;94.50;;;;;;5038164;28;20030;-81
2022/01/12 09:47:05;;;;;;;1.83;1.33;;;22.50;94.60;;;;;;5053407;28;20037;-84
2022/01/12 09:49:31;;;;;;;2.97;1.40;;;22.50;94.00;;;;;;5051935;28;20021;-85
2022/01/12 09:51:58;;;;;;;4.30;1.17;;;22.60;93.90;;;;;;5035295;28;20071;-85
2022/01/12 09:54:25;;;;;;;2.83;1.20;;;22.70;93.70;;;;;;5035660;28;20021;-82
2022/01/12 09:56:53;;;;;;;4.05;1.05;;;22.70;93.70;;;;;;5038178;28;20087;-80
2022/01/12 09:59:23;;;;;;;2.45;1.30;;;22.80;93.40;;;;;;5035077;28;20037;-77
2022/01/12 10:01:50;;;;;;;2.10;1.20;;;22.80;93.30;;;;;;5039278;28;20077;-84
2022/01/12 10:04:22;;;;;;;3.83;1.15;;;22.90;93.10;;;;;;5044188;28;20024;-80
2022/01/12 10:06:57;;;;;;;;;;;22.90;93.10;;;;;;5057237;28;20025;-80
2022/01/12 10:09:25;;;;;;;2.65;1.17;;;22.90;92.70;;;;;;5044628;28;19963;-80
2022/01/12 10:12:05;;;;;;;3.95;1.40;;;22.90;92.70;;;;;;5054057;28;20022;-80
2022/01/12 10:14:43;;;;;;;3.22;1.33;;;22.90;92.50;;;;;;5056783;28;21004;-83
2022/01/12 10:17:10;;;;;;;4.07;1.35;;;22.90;92.70;;;;;;5055780;28;20040;-83
2022/01/12 10:19:36;;;;;;;4.32;1.20;;;23.00;92.60;;;;;;5042478;28;20029;-80
2022/01/12 10:22:05;;;;;;;4.07;1.20;;;23.00;92.30;;;;;;5039965;28;20048;-80
2022/01/12 10:24:35;;;;;;;4.25;1.35;;;22.90;92.20;;;;;;5040974;28;20036;-78
2022/01/12 10:27:01;;;;;;;1.67;1.13;;;23.00;92.50;;;;;;5043073;28;20040;-81
2022/01/12 10:29:31;;;;;;;2.78;1.10;;;23.00;92.30;;;;;;5041977;28;20510;-81
2022/01/12 10:31:58;;;;;;;2.50;1.20;;;23.00;92.30;;;;;;5046784;28;20171;-81
2022/01/12 10:34:36;;;;;;;5.65;2.05;;;23.00;92.30;;;;;;5040460;28;20026;-83
2022/01/12 10:37:09;;;;;;;1.90;1.17;;;23.10;92.20;;;;;;5054709;28;20045;-82
2022/01/12 10:39:43;;;;;;;2.05;1.13;;;23.10;92.10;;;;;;5035068;28;20064;-80
2022/01/12 10:42:11;;;;;;;6.45;1.38;;;23.10;92.10;;;;;;5026564;28;20937;-80
2022/01/12 10:44:43;;;;;;;3.83;1.65;;;23.10;92.20;;;;;;5027659;28;20343;-80
2022/01/12 10:47:13;;;;;;;3.10;1.13;;;23.10;92.00;;;;;;5031566;28;20043;-79
2022/01/12 10:49:56;;;;;;;3.28;1.25;;;23.20;92.10;;;;;;5041501;28;20369;-82
2022/01/12 10:52:38;;;;;;;2.90;1.55;;;23.20;92.20;;;;;;5028164;28;20025;-82
2022/01/12 10:55:10;;;;;;;2.67;1.00;;;23.10;91.80;;;;;;5030448;28;20026;-88
2022/01/12 10:57:38;;;;;;;2.50;1.30;;;23.20;91.70;;;;;;5045634;28;20026;-88
2022/01/12 11:00:22;;;;;;;2.47;1.25;;;23.20;91.80;;;;;;5027725;28;20029;-88
2022/01/12 11:02:53;;;;;;;2.90;1.25;;;23.20;91.70;;;;;;5033223;28;20030;-80
2022/01/12 11:05:23;;;;;;;3.30;1.80;;;23.20;91.80;;;;;;5024153;28;20021;-80
2022/01/12 11:07:51;;;;;;;2.70;1.30;;;23.20;91.80;;;;;;5031390;28;20495;-82
2022/01/12 11:10:18;;;;;;;2.42;1.30;;;23.20;91.60;;;;;;5030031;28;20022;-80
2022/01/12 11:13:15;;;;;;;2.78;1.08;;;23.20;91.60;;;;;;5040065;28;20108;-81
2022/01/12 11:15:44;;;;;;;2.83;1.33;;;23.20;91.70;;;;;;5028745;28;20060;-79
2022/01/12 11:19:01;;;;;;;2.67;1.20;;;23.20;91.50;;;;;;5028413;28;20030;-81
2022/01/12 11:21:57;;;;;;;2.45;1.17;;;23.20;91.70;;;;;;5030340;28;20037;-80
2022/01/12 11:24:35;;;;;;;3.83;1.30;;;23.10;91.60;;;;;;5023749;28;20029;-79
2022/01/12 11:27:32;;;;;;;2.85;1.30;;;23.00;91.60;;;;;;5038364;28;20041;-80
2022/01/12 11:30:28;;;;;;;2.72;1.23;;;23.00;91.70;;;;;;5026867;28;20036;-81
2022/01/12 11:33:34;;;;;;;4.03;1.30;;;23.00;91.50;;;;;;5033049;28;20022;-79
2022/01/12 11:39:39;;;;;;;3.15;1.15;;;23.00;91.60;;;;;;5029108;28;20053;-79
2022/01/12 11:46:05;;;;;;;2.92;1.50;;;23.00;91.60;;;;;;5023776;28;20096;-80
2022/01/12 11:55:34;;;;;;;3.13;1.40;;;22.90;91.70;;;;;;5022672;28;20032;-79
2022/01/12 12:01:23;;;;;;;2.53;1.58;;;22.90;91.80;;;;;;5027038;28;20079;-78
2022/01/12 12:04:00;;;;;;;6.55;1.25;;;22.80;91.70;;;;;;5024916;28;20025;-80
2022/01/12 12:06:27;;;;;;;2.97;1.13;;;22.80;92.00;;;;;;5027615;28;20413;-81
2022/01/12 12:09:10;;;;;;;4.88;1.50;;;22.80;92.10;;;;;;5030442;28;20474;-80
2022/01/12 12:11:36;;;;;;;12.93;6.57;;;22.90;92.00;;;;;;5020923;28;20114;-82
2022/01/12 12:14:07;;;;;;;16.58;6.95;;;20.80;58.10;;;;;;5038296;28;20699;-78
2022/01/12 12:16:34;;;;;;;28.77;9.43;;;15.70;67.70;;;;;;5029516;28;20040;-79
2022/01/12 12:19:02;;;;;;;18.47;7.03;;;11.10;79.90;;;;;;5027174;28;20121;-80
2022/01/12 12:21:28;;;;;;;20.90;7.77;;;;;;;;;;5028596;28;20030;-82
2022/01/12 12:23:54;;;;;;;17.80;7.30;;;8.30;91.80;;;;;;5033641;28;20061;-77
2022/01/12 12:26:22;;;;;;;27.83;10.37;;;5.70;99.90;;;;;;5046276;28;20045;-80
2022/01/12 12:28:55;;;;;;;32.83;10.33;;;4.90;99.90;;;;;;5031510;28;20048;-76
2022/01/12 12:31:23;;;;;;;27.67;9.63;;;4.50;99.90;;;;;;5039513;28;20101;-78
2022/01/12 12:34:05;;;;;;;37.33;10.47;;;4.10;99.90;;;;;;5062023;28;20033;-79
2022/01/12 12:36:32;;;;;;;29.23;11.07;;;4.00;99.90;;;;;;5028285;28;20281;-77
2022/01/12 12:39:12;;;;;;;30.47;10.60;;;3.80;99.90;;;;;;5046981;28;20277;-76
2022/01/12 12:41:43;;;;;;;47.33;10.60;;;3.60;99.90;;;;;;5029213;28;20276;-80
2022/01/12 12:44:24;;;;;;;40.70;12.30;;;3.60;99.90;;;;;;5036503;28;20284;-78
2022/01/12 12:46:51;;;;;;;42.57;15.40;;;3.50;99.90;;;;;;5037865;28;20296;-80
2022/01/12 12:49:17;;;;;;;48.30;11.40;;;3.50;99.90;;;;;;5036361;28;20304;-79
2022/01/12 12:51:42;;;;;;;48.53;12.03;;;3.50;99.90;;;;;;5036824;28;20311;-80
2022/01/12 12:54:08;;;;;;;48.30;13.47;;;3.60;99.90;;;;;;5035017;28;20199;-81
2022/01/12 12:56:41;;;;;;;37.87;12.03;;;3.70;99.90;;;;;;5044108;28;20017;-73
2022/01/12 12:59:10;;;;;;;48.28;12.30;;;3.70;99.90;;;;;;5083170;28;20029;-75
2022/01/12 13:01:39;;;;;;;56.37;13.07;;;3.70;99.90;;;;;;5044148;28;20103;-79
2022/01/12 13:04:04;;;;;;;48.53;13.97;;;3.60;99.90;;;;;;5050774;28;20276;-72
2022/01/12 13:06:34;;;;;;;36.10;10.50;;;3.60;99.90;;;;;;5050035;28;20324;-72
2022/01/12 13:09:04;;;;;;;54.63;12.67;;;3.60;99.90;;;;;;5045722;28;20308;-75
2022/01/12 13:11:35;;;;;;;51.90;13.83;;;3.60;99.90;;;;;;5049751;28;20299;-72
2022/01/12 13:14:12;;;;;;;60.77;15.57;;;3.60;99.90;;;;;;5044870;28;20276;-73
2022/01/12 13:16:49;;;;;;;56.07;12.73;;;3.70;99.90;;;;;;5063060;28;20281;-73
2022/01/12 13:21:06;;;;;;;58.43;12.80;;;3.70;99.90;;;;;;5050626;28;20275;-73
2022/01/12 13:22:25;;;;;;;59.80;14.23;;;3.70;99.90;;;;;;5044950;28;20284;-74
2022/01/12 13:24:51;;;;;;;39.83;12.33;;;3.70;99.90;;;;;;5050670;28;20277;-72
2022/01/12 13:27:17;;;;;;;43.20;12.77;;;3.70;99.90;;;;;;5046708;28;20302;-72
2022/01/12 13:29:50;;;;;;;57.50;13.93;;;3.70;99.90;;;;;;5045944;28;20025;-72
2022/01/12 13:32:16;;;;;;;61.97;13.27;;;3.70;99.90;;;;;;5066487;28;20022;-74
2022/01/12 13:34:56;;;;;;;63.23;12.67;;;3.70;99.90;;;;;;5044247;28;20352;-72
2022/01/12 13:37:22;;;;;;;55.63;13.23;;;3.70;99.90;;;;;;5078669;28;20276;-71
2022/01/12 13:40:01;;;;;;;62.33;15.50;;;3.70;99.90;;;;;;5081487;28;20305;-74
2022/01/12 13:42:27;;;;;;;56.20;12.87;;;3.60;99.90;;;;;;5045373;28;20284;-72
2022/01/12 13:45:07;;;;;;;40.53;12.80;;;3.70;99.90;;;;;;5043523;28;20302;-80
2022/01/12 13:47:37;;;;;;;47.57;14.03;;;3.70;99.90;;;;;;5058911;28;20056;-72
2022/01/12 13:50:06;;;;;;;50.67;11.80;;;3.70;99.90;;;;;;5041942;28;20276;-76
2022/01/12 13:52:32;;;;;;;49.17;14.60;;;3.70;99.90;;;;;;5051076;28;20271;-72
2022/01/12 13:55:09;;;;;;;51.13;13.13;;;3.60;99.90;;;;;;5076278;28;20352;-77
2022/01/12 13:57:35;;;;;;;51.17;13.80;;;3.60;99.90;;;;;;5047837;28;20028;-72
2022/01/12 14:00:05;;;;;;;48.43;13.73;;;3.60;99.90;;;;;;5041499;28;20285;-74
2022/01/12 14:02:40;;;;;;;54.63;15.23;;;3.50;99.90;;;;;;5077930;28;20041;-72
2022/01/12 14:05:17;;;;;;;60.07;14.33;;;3.60;99.90;;;;;;5047109;28;20261;-73
2022/01/12 14:08:00;;;;;;;53.20;15.40;;;3.50;99.90;;;;;;5045391;28;20284;-75
2022/01/12 14:10:27;;;;;;;61.15;17.35;;;3.50;99.90;;;;;;5075649;28;20298;-76
2022/01/12 14:12:53;;;;;;;67.47;14.37;;;3.50;99.90;;;;;;5041800;28;20105;-72
2022/01/12 14:15:28;;;;;;;74.93;17.07;;;3.60;99.90;;;;;;5048460;28;20305;-75
2022/01/12 14:17:58;;;;;;;56.97;14.50;;;3.50;99.90;;;;;;5052212;28;20295;-71
2022/01/12 14:20:36;;;;;;;59.93;15.53;;;3.50;99.90;;;;;;5054470;28;20267;-71
2022/01/12 14:23:05;;;;;;;54.20;15.23;;;3.50;99.90;;;;;;5085734;28;20272;-72
2022/01/12 14:25:35;;;;;;;54.37;13.90;;;3.60;99.90;;;;;;5052329;28;20299;-71
2022/01/12 14:28:02;;;;;;;78.40;15.43;;;3.50;99.90;;;;;;5052126;28;20341;-75
2022/01/12 14:30:28;;;;;;;57.60;15.10;;;3.50;99.90;;;;;;5050639;28;20344;-72
2022/01/12 14:32:56;;;;;;;62.80;14.23;;;3.60;99.90;;;;;;5049990;28;20280;-73
2022/01/12 14:35:23;;;;;;;51.60;13.93;;;3.60;99.90;;;;;;5054838;28;20101;-76
2022/01/12 14:37:53;;;;;;;69.13;15.90;;;3.50;99.90;;;;;;5051709;28;20280;-71
2022/01/12 14:40:21;;;;;;;59.77;15.73;;;3.50;99.90;;;;;;5045236;28;20287;-80
2022/01/12 14:42:53;;;;;;;55.40;14.37;;;3.60;99.90;;;;;;5058155;28;20384;-73
2022/01/12 14:45:23;;;;;;;65.07;14.70;;;3.60;99.90;;;;;;5082233;28;20356;-75
2022/01/12 14:47:51;;;;;;;56.27;14.33;;;3.60;99.90;;;;;;5048761;28;20285;-72
2022/01/12 14:50:17;;;;;;;55.17;14.73;;;3.60;99.90;;;;;;5048027;28;20292;-76
2022/01/12 14:52:43;;;;;;;59.43;16.50;;;3.60;99.90;;;;;;5043486;28;20286;-71
2022/01/12 14:55:10;;;;;;;51.20;15.93;;;3.60;99.90;;;;;;5059660;28;20130;-74
2022/01/12 14:57:36;;;;;;;63.67;14.47;;;3.60;99.90;;;;;;5080424;28;20030;-72
2022/01/12 15:00:05;;;;;;;76.30;17.83;;;3.60;99.90;;;;;;5047790;28;20369;-72
2022/01/12 15:02:33;;;;;;;65.57;16.53;;;3.50;99.90;;;;;;5050075;28;20013;-73
2022/01/12 15:04:58;;;;;;;64.43;15.47;;;3.50;99.90;;;;;;5049317;28;20307;-73
2022/01/12 15:07:24;;;;;;;63.47;17.40;;;3.50;99.90;;;;;;5048352;28;20283;-73
2022/01/12 15:09:50;;;;;;;65.17;17.50;;;3.50;99.90;;;;;;5045541;28;20056;-80
2022/01/12 15:12:23;;;;;;;79.53;16.50;;;3.40;99.90;;;;;;5060094;28;20020;-72
2022/01/12 15:14:59;;;;;;;73.30;17.53;;;3.50;99.90;;;;;;5049807;28;20010;-73
2022/01/12 15:17:31;;;;;;;66.20;16.70;;;3.50;99.90;;;;;;5058359;28;20343;-74
2022/01/12 15:19:57;;;;;;;67.10;15.30;;;3.50;99.90;;;;;;5063027;28;20284;-79
2022/01/12 15:22:23;;;;;;;67.17;15.93;;;3.50;99.90;;;;;;5049037;28;20276;-73
2022/01/12 15:24:49;;;;;;;70.03;15.50;;;3.50;99.90;;;;;;5048437;28;20275;-73
2022/01/12 15:27:15;;;;;;;63.60;16.60;;;3.50;99.90;;;;;;5044503;28;20320;-73
2022/01/12 15:29:42;;;;;;;75.60;17.53;;;3.50;99.90;;;;;;5047426;28;20299;-72
2022/01/12 15:32:08;;;;;;;52.20;14.17;;;3.50;99.90;;;;;;5053576;28;20034;-75
2022/01/12 15:34:34;;;;;;;73.27;17.73;;;3.50;99.90;;;;;;5055357;28;20303;-79
2022/01/12 15:36:59;;;;;;;65.37;15.23;;;3.50;99.90;;;;;;5048011;28;20081;-76
2022/01/12 15:39:28;;;;;;;63.20;15.37;;;3.50;99.90;;;;;;5049692;28;20636;-73
2022/01/12 15:41:53;;;;;;;66.33;15.03;;;3.60;99.90;;;;;;5049070;28;20045;-72
2022/01/12 15:44:19;;;;;;;78.63;19.47;;;3.50;99.90;;;;;;5046842;28;20263;-73
2022/01/12 15:46:47;;;;;;;71.13;18.73;;;3.50;99.90;;;;;;5044684;28;20105;-72
2022/01/12 15:49:13;;;;;;;70.27;17.33;;;3.50;99.90;;;;;;5055144;28;20022;-74
2022/01/12 15:51:39;;;;;;;75.07;16.83;;;3.50;99.90;;;;;;5049613;28;20290;-77
2022/01/12 15:54:05;;;;;;;61.30;16.60;;;3.50;99.90;;;;;;5047334;28;20017;-73
2022/01/12 15:56:30;;;;;;;76.07;18.40;;;3.50;99.90;;;;;;5059001;28;20056;-73
2022/01/12 15:58:56;;;;;;;66.67;19.20;;;3.50;99.90;;;;;;5047146;28;20060;-72
2022/01/12 16:01:21;;;;;;;80.07;18.27;;;3.50;99.90;;;;;;5082674;28;20159;-73
2022/01/12 16:03:47;;;;;;;66.13;16.50;;;3.50;99.90;;;;;;5047220;28;20033;-74
2022/01/12 16:06:12;;;;;;;61.10;16.30;;;3.50;99.90;;;;;;5050062;28;20053;-72
2022/01/12 16:08:38;;;;;;;69.50;17.93;;;3.50;99.90;;;;;;5044224;28;20018;-74
2022/01/12 16:11:10;;;;;;;60.37;15.23;;;3.50;99.90;;;;;;5057235;28;20037;-72
2022/01/12 16:13:39;;;;;;;68.77;19.33;;;3.50;99.90;;;;;;5053185;28;20089;-75
2022/01/12 16:16:06;;;;;;;60.83;16.17;;;3.50;99.90;;;;;;5045612;28;20394;-72
2022/01/12 16:18:32;;;;;;;77.33;17.73;;;3.50;99.90;;;;;;5047567;28;20310;-73
2022/01/12 16:21:00;;;;;;;50.67;14.93;;;3.50;99.90;;;;;;5050221;28;20273;-73
2022/01/12 16:23:33;;;;;;;75.27;19.67;;;3.60;99.90;;;;;;5047776;28;20606;-74
2022/01/12 16:26:03;;;;;;;75.68;16.10;;;3.50;99.90;;;;;;5044664;28;20332;-73
2022/01/12 16:28:37;;;;;;;63.07;17.37;;;3.50;99.90;;;;;;5077935;28;20064;-73
2022/01/12 16:31:04;;;;;;;72.13;20.03;;;3.50;99.90;;;;;;5052451;28;20288;-72
2022/01/12 16:33:34;;;;;;;70.10;17.20;;;3.50;99.90;;;;;;5078048;28;20283;-73
2022/01/12 16:36:00;;;;;;;68.23;16.60;;;3.50;99.90;;;;;;5043178;28;20285;-77
2022/01/12 16:38:26;;;;;;;65.90;17.60;;;3.50;99.90;;;;;;5044586;28;20298;-75
2022/01/12 16:41:03;;;;;;;71.27;16.10;;;3.50;99.90;;;;;;5046158;28;20299;-72
2022/01/12 16:43:34;;;;;;;75.27;16.53;;;3.50;99.90;;;;;;5041011;28;20280;-73
2022/01/12 16:46:09;;;;;;;75.73;17.07;;;3.50;99.90;;;;;;5041538;28;22180;-74
2022/01/12 16:48:35;;;;;;;66.30;16.63;;;3.40;99.90;;;;;;5041442;28;20389;-73
2022/01/12 16:51:00;;;;;;;59.67;14.13;;;3.40;99.90;;;;;;5041372;28;20292;-74
2022/01/12 16:53:33;;;;;;;57.93;15.57;;;3.50;99.90;;;;;;5044541;28;20033;-77
2022/01/12 16:56:01;;;;;;;;;;;3.50;99.90;;;;;;5045944;28;20033;-73
2022/01/12 16:58:37;;;;;;;78.60;18.67;;;3.50;99.90;;;;;;5076272;28;19901;-75
2022/01/12 17:01:07;;;;;;;79.70;15.23;;;3.50;99.90;;;;;;5045358;28;20271;-72
2022/01/12 17:03:35;;;;;;;70.40;15.90;;;3.50;99.90;;;;;;5047253;28;20299;-72
2022/01/12 17:06:01;;;;;;;67.47;16.63;;;3.40;99.90;;;;;;5043215;28;20311;-72
2022/01/12 17:08:27;;;;;;;78.53;16.57;;;3.40;99.90;;;;;;5047328;28;20288;-72
2022/01/12 17:10:52;;;;;;;68.83;15.77;;;3.40;99.90;;;;;;5045956;28;20303;-73
2022/01/12 17:13:18;;;;;;;64.33;14.67;;;3.40;99.90;;;;;;5045676;28;20033;-76
2022/01/12 17:15:49;;;;;;;73.70;16.80;;;3.40;99.90;;;;;;5037573;28;20034;-74
2022/01/12 17:18:47;;;;;;;61.70;14.60;;;3.40;99.90;;;;;;5050295;28;20026;-71
2022/01/12 17:21:13;;;;;;;65.97;15.97;;;3.50;99.90;;;;;;5042975;28;20603;-72
2022/01/12 17:24:04;;;;;;;54.63;15.93;;;3.50;99.90;;;;;;5042784;28;20319;-71
2022/01/12 17:26:46;;;;;;;61.23;14.47;;;3.50;99.90;;;;;;5043625;28;20292;-74
2022/01/12 17:29:16;;;;;;;46.42;13.20;;;3.50;99.90;;;;;;5051973;28;20288;-75
2022/01/12 17:31:44;;;;;;;73.17;17.47;;;3.50;99.90;;;;;;5044906;28;20014;-74
2022/01/12 17:34:12;;;;;;;54.07;14.27;;;3.60;99.90;;;;;;5042033;28;20271;-74
2022/01/12 17:36:49;;;;;;;49.13;12.77;;;3.60;99.90;;;;;;5043042;28;20271;-74
2022/01/12 17:39:18;;;;;;;39.60;12.33;;;3.60;99.90;;;;;;5042151;28;20276;-73
2022/01/12 17:41:53;;;;;;;51.80;15.10;;;3.60;99.90;;;;;;5045038;28;20284;-77
2022/01/12 17:44:24;;;;;;;62.03;15.67;;;3.60;99.90;;;;;;5041578;28;20676;-73
2022/01/12 17:46:50;;;;;;;72.63;15.57;;;3.60;99.90;;;;;;5051657;28;20389;-72
2022/01/12 17:49:22;;;;;;;59.90;14.30;;;3.50;99.90;;;;;;5052775;28;20277;-72
2022/01/12 17:51:48;;;;;;;61.17;15.83;;;3.50;99.90;;;;;;5048894;28;20059;-73
2022/01/12 17:54:19;;;;;;;59.53;16.13;;;3.50;99.90;;;;;;5049890;28;20061;-72
2022/01/12 17:56:48;;;;;;;88.53;15.27;;;3.50;99.90;;;;;;5050939;28;20276;-73
2022/01/12 17:59:14;;;;;;;76.97;14.97;;;3.50;99.90;;;;;;5050695;28;20280;-73
2022/01/12 18:01:39;;;;;;;61.93;15.27;;;3.50;99.90;;;;;;5051410;28;20346;-72
2022/01/12 18:04:05;;;;;;;45.37;13.43;;;3.50;99.90;;;;;;5085030;28;20081;-73
2022/01/12 18:06:31;;;;;;;56.40;13.47;;;3.50;99.90;;;;;;5062102;28;20140;-73
2022/01/12 18:08:56;;;;;;;61.93;15.23;;;3.50;99.90;;;;;;5052423;28;20018;-72
2022/01/12 18:11:23;;;;;;;69.37;16.07;;;3.50;99.90;;;;;;5060309;28;20041;-73
2022/01/12 18:13:50;;;;;;;47.37;13.80;;;3.50;99.90;;;;;;5049987;28;20048;-73
2022/01/12 18:16:18;;;;;;;57.53;14.30;;;3.50;99.90;;;;;;5048388;28;20593;-72
2022/01/12 18:18:56;;;;;;;51.33;13.70;;;3.60;99.90;;;;;;5053145;28;20273;-73
2022/01/12 18:21:25;;;;;;;65.20;16.50;;;3.60;99.90;;;;;;5051560;28;20284;-72
2022/01/12 18:23:51;;;;;;;55.37;15.70;;;3.60;99.90;;;;;;5059390;28;20347;-73
2022/01/12 18:26:17;;;;;;;52.17;15.10;;;3.60;99.90;;;;;;5061808;28;20304;-73
2022/01/12 18:28:45;;;;;;;60.57;18.40;;;3.50;99.90;;;;;;5051623;28;20280;-75
2022/01/12 18:31:11;;;;;;;67.77;16.27;;;3.50;99.90;;;;;;5049797;28;20025;-73
2022/01/12 18:33:43;;;;;;;53.67;15.20;;;3.50;99.90;;;;;;5059566;28;20280;-73
2022/01/12 18:36:09;;;;;;;33.37;13.33;;;3.50;99.90;;;;;;5048823;28;20281;-73
2022/01/12 18:38:37;;;;;;;35.67;11.20;;;3.50;99.90;;;;;;5051512;28;20286;-72
2022/01/12 18:41:06;;;;;;;30.97;9.90;;;3.50;99.90;;;;;;5050857;28;20024;-72
2022/01/12 18:43:34;;;;;;;38.10;11.33;;;3.40;99.90;;;;;;5059775;28;20290;-72
2022/01/12 18:46:00;;;;;;;40.43;12.00;;;3.40;99.90;;;;;;5052391;28;20309;-73
2022/01/12 18:48:28;;;;;;;38.20;11.67;;;3.40;99.90;;;;;;5048867;28;20283;-73
2022/01/12 18:50:58;;;;;;;28.83;11.10;;;3.40;99.90;;;;;;5058840;28;20016;-72
2022/01/12 18:53:23;;;;;;;34.83;12.63;;;3.50;99.90;;;;;;5052536;28;20272;-73
2022/01/12 18:55:49;;;;;;;27.23;11.17;;;3.50;99.90;;;;;;5053796;28;20352;-72
2022/01/12 18:58:15;;;;;;;37.73;10.97;;;3.50;99.90;;;;;;5084587;28;20093;-72
2022/01/12 19:00:43;;;;;;;23.67;9.07;;;3.40;99.90;;;;;;5050637;28;20366;-72
2022/01/12 19:03:14;;;;;;;30.03;11.67;;;3.40;99.90;;;;;;5051810;28;20280;-73
2022/01/12 19:05:43;;;;;;;31.83;11.07;;;3.40;99.90;;;;;;5050674;28;20303;-72
2022/01/12 19:08:09;;;;;;;28.73;9.73;;;3.40;99.90;;;;;;5084510;28;20287;-72
2022/01/12 19:10:34;;;;;;;31.83;11.53;;;3.30;99.90;;;;;;5051939;28;20298;-73
2022/01/12 19:13:01;;;;;;;31.83;10.67;;;3.40;99.90;;;;;;5082606;28;20033;-74
2022/01/12 19:15:29;;;;;;;27.60;9.90;;;3.30;99.90;;;;;;5068391;28;20013;-73
2022/01/12 19:17:57;;;;;;;26.33;8.30;;;3.30;99.90;;;;;;5057889;28;20380;-72
2022/01/12 19:20:25;;;;;;;32.80;10.23;;;3.30;99.90;;;;;;5040087;28;20288;-78
2022/01/12 19:22:50;;;;;;;26.00;9.50;;;3.30;99.90;;;;;;5039758;28;20359;-74
2022/01/12 19:25:16;;;;;;;24.63;8.43;;;3.30;99.90;;;;;;5045870;28;20540;-73
2022/01/12 19:27:45;;;;;;;24.17;9.90;;;3.40;99.90;;;;;;5056738;28;20033;-75
2022/01/12 19:30:12;;;;;;;22.67;9.07;;;3.40;99.90;;;;;;5043233;28;20052;-75
2022/01/12 19:32:41;;;;;;;27.90;9.00;;;3.50;99.90;;;;;;5037180;28;20304;-75
2022/01/12 19:35:08;;;;;;;27.70;10.53;;;3.50;99.90;;;;;;5038165;28;20297;-77
2022/01/12 19:37:36;;;;;;;26.60;9.87;;;3.50;99.90;;;;;;5040747;28;20283;-74
2022/01/12 19:40:02;;;;;;;23.17;11.03;;;3.50;99.90;;;;;;5038288;28;20289;-75
2022/01/12 19:42:27;;;;;;;32.23;11.80;;;3.50;99.90;;;;;;5049840;28;20263;-78
2022/01/12 19:44:56;;;;;;;28.27;10.90;;;3.50;99.90;;;;;;5045982;28;20347;-73
2022/01/12 19:47:21;;;;;;;32.67;12.80;;;3.50;99.90;;;;;;5057623;28;20064;-72
2022/01/12 19:49:52;;;;;;;32.97;11.57;;;3.40;99.90;;;;;;5043478;28;20295;-77
2022/01/12 19:52:49;;;;;;;35.37;11.70;;;3.50;99.90;;;;;;5028639;28;20029;-78
2022/01/12 19:55:39;;;;;;;31.33;10.90;;;3.40;99.90;;;;;;5044347;28;20279;-72
2022/01/12 19:58:12;;;;;;;43.23;12.17;;;3.40;99.90;;;;;;5055121;28;20280;-72
2022/01/12 20:00:40;;;;;;;43.75;13.13;;;3.40;99.90;;;;;;5048860;28;20310;-73
2022/01/12 20:03:09;;;;;;;34.27;12.57;;;3.40;99.90;;;;;;5050139;28;20037;-72
2022/01/12 20:05:39;;;;;;;35.77;11.93;;;3.40;99.90;;;;;;5048770;28;20300;-73
2022/01/12 20:08:31;;;;;;;34.03;12.00;;;3.40;99.90;;;;;;5087580;28;20288;-73
2022/01/12 20:10:57;;;;;;;36.72;12.18;;;3.30;99.90;;;;;;5083254;28;20302;-73
2022/01/12 20:13:22;;;;;;;39.33;11.50;;;3.40;99.90;;;;;;5050160;28;20026;-73
2022/01/12 20:15:52;;;;;;;38.93;13.97;;;3.40;99.90;;;;;;5052264;28;20020;-73
2022/01/12 20:24:37;;;;;;;45.63;12.00;;;3.30;99.90;;;;;;5045764;28;20317;-76
2022/01/12 20:27:12;;;;;;;33.40;11.57;;;3.40;99.90;;;;;;5062236;28;20326;-72
2022/01/12 20:29:44;;;;;;;41.10;12.87;;;3.40;99.90;;;;;;5045221;28;20390;-74
2022/01/12 20:32:12;;;;;;;36.37;12.20;;;3.40;99.90;;;;;;5043829;28;20284;-72
2022/01/12 20:34:50;;;;;;;31.17;10.57;;;3.40;99.90;;;;;;5047823;28;20315;-72
2022/01/12 20:37:17;;;;;;;33.70;11.13;;;3.40;99.90;;;;;;5043298;28;20287;-74
2022/01/12 20:39:43;;;;;;;41.07;13.43;;;3.40;99.90;;;;;;5077325;28;20289;-71
2022/01/12 20:42:12;;;;;;;29.53;10.93;;;3.40;99.90;;;;;;5043973;28;20279;-72
2022/01/12 20:44:44;;;;;;;30.80;10.37;;;3.40;99.90;;;;;;5045022;28;20279;-72
2022/01/12 20:47:10;;;;;;;31.20;11.07;;;3.50;99.90;;;;;;5051619;28;20314;-73
2022/01/12 20:49:40;;;;;;;35.40;11.67;;;3.50;99.90;;;;;;5075575;28;20291;-74
2022/01/12 20:52:06;;;;;;;36.13;12.07;;;3.50;99.90;;;;;;5058386;28;20348;-73
2022/01/12 20:54:32;;;;;;;34.93;12.83;;;3.50;99.90;;;;;;5046609;28;20271;-73
2022/01/12 20:57:00;;;;;;;35.70;11.70;;;3.40;99.90;;;;;;5059623;28;20295;-72
2022/01/12 20:59:29;;;;;;;26.80;10.90;;;3.40;99.90;;;;;;5047323;28;20287;-73
2022/01/12 21:01:58;;;;;;;38.23;12.03;;;3.40;99.90;;;;;;5042662;28;20264;-74
2022/01/12 21:04:23;;;;;;;37.50;12.90;;;3.40;99.90;;;;;;5043160;28;20293;-73
2022/01/12 21:06:49;;;;;;;39.90;12.83;;;3.40;99.90;;;;;;5045379;28;20296;-76
2022/01/12 21:09:15;;;;;;;37.77;12.57;;;3.40;99.90;;;;;;5051863;28;20037;-73
2022/01/12 21:11:48;;;;;;;29.33;12.13;;;3.40;99.90;;;;;;5075503;28;20066;-73
2022/01/12 21:14:18;;;;;;;32.47;11.93;;;3.50;99.90;;;;;;5044004;28;20030;-74
2022/01/12 21:16:45;;;;;;;31.73;11.63;;;3.50;99.90;;;;;;5046232;28;20370;-73
2022/01/12 21:19:19;;;;;;;32.00;12.83;;;3.60;99.90;;;;;;5041179;28;20264;-72
2022/01/12 21:21:46;;;;;;;31.33;11.50;;;3.60;99.90;;;;;;5057880;28;20307;-72
2022/01/12 21:24:16;;;;;;;33.73;13.07;;;3.60;99.90;;;;;;5047708;28;20276;-73
2022/01/12 21:26:42;;;;;;;36.60;14.20;;;3.50;99.90;;;;;;5045892;28;20283;-73
2022/01/12 21:29:07;;;;;;;42.47;14.87;;;3.60;99.90;;;;;;5064736;28;20275;-72
2022/01/12 21:31:36;;;;;;;38.37;14.37;;;3.50;99.90;;;;;;5046411;28;20030;-73
2022/01/12 21:34:09;;;;;;;31.67;11.13;;;3.50;99.90;;;;;;5077673;28;20049;-73
2022/01/12 21:36:37;;;;;;;42.20;13.87;;;3.50;99.90;;;;;;5048020;28;20320;-73
2022/01/12 21:39:11;;;;;;;36.10;13.03;;;3.40;99.90;;;;;;5056112;28;20307;-72
2022/01/12 21:41:45;;;;;;;43.13;15.00;;;3.40;99.90;;;;;;5046574;28;20770;-72
2022/01/12 21:44:12;;;;;;;39.23;12.20;;;3.40;99.90;;;;;;5047771;28;20370;-77
2022/01/12 21:46:39;;;;;;;29.97;12.27;;;3.40;99.90;;;;;;5048171;28;21370;-73
2022/01/12 21:49:12;;;;;;;42.83;13.23;;;3.30;99.90;;;;;;5046642;28;20363;-73
2022/01/12 21:51:41;;;;;;;38.90;13.27;;;3.30;99.90;;;;;;5044613;28;20272;-73
2022/01/12 21:54:13;;;;;;;39.37;10.90;;;3.30;99.90;;;;;;5075945;28;20280;-73
2022/01/12 21:56:40;;;;;;;40.83;12.97;;;3.30;99.90;;;;;;5080089;28;20293;-73
2022/01/12 21:59:10;;;;;;;37.47;10.83;;;3.40;99.90;;;;;;5078893;28;20271;-72
2022/01/12 22:01:36;;;;;;;37.53;11.67;;;3.40;99.90;;;;;;5057828;28;20376;-73
2022/01/12 22:04:07;;;;;;;35.40;12.37;;;3.40;99.90;;;;;;5041706;28;20276;-74
2022/01/12 22:06:41;;;;;;;43.23;13.63;;;3.40;99.90;;;;;;5039664;28;20038;-75
2022/01/12 22:09:06;;;;;;;29.60;10.13;;;3.40;99.90;;;;;;5071674;28;20283;-79
2022/01/12 22:11:32;;;;;;;34.83;10.50;;;3.40;99.90;;;;;;5039396;28;20280;-72
2022/01/12 22:14:02;;;;;;;39.93;12.30;;;3.40;99.90;;;;;;5043101;28;20280;-75
2022/01/12 22:16:28;;;;;;;31.73;11.10;;;3.50;99.90;;;;;;5045365;28;20030;-74
2022/01/12 22:18:53;;;;;;;35.27;11.63;;;3.50;99.90;;;;;;5046259;28;20283;-75
2022/01/12 22:21:24;;;;;;;31.57;11.47;;;3.50;99.90;;;;;;5045926;28;20017;-74
2022/01/12 22:23:56;;;;;;;30.90;10.97;;;3.50;99.90;;;;;;5049428;28;20104;-73
2022/01/12 22:26:22;;;;;;;35.90;11.90;;;3.40;99.90;;;;;;5056842;28;20299;-72
2022/01/12 22:28:48;;;;;;;30.03;12.10;;;3.40;99.90;;;;;;5050243;28;20280;-73
2022/01/12 22:31:16;;;;;;;38.97;12.13;;;3.40;99.90;;;;;;5045690;28;20292;-72
2022/01/12 22:33:42;;;;;;;30.87;10.80;;;3.40;99.90;;;;;;5081453;28;20036;-72
2022/01/12 22:36:07;;;;;;;29.73;13.33;;;3.30;99.90;;;;;;5050189;28;20293;-73
2022/01/12 22:38:33;;;;;;;36.63;12.77;;;3.40;99.90;;;;;;5050814;28;20094;-71
2022/01/12 22:40:59;;;;;;;36.40;12.80;;;3.30;99.90;;;;;;5051203;28;20040;-73
2022/01/12 22:43:25;;;;;;;30.57;11.70;;;3.40;99.90;;;;;;5057966;28;20276;-72
2022/01/12 22:45:50;;;;;;;38.10;13.47;;;3.30;99.90;;;;;;5052120;28;20037;-73